Time;durP1;ratioP1;P1;durP2;ratioP2;P2;SDS_P1;SDS_P2;PMS_P1;PMS_P2;Temp;Humidity;BMP_temperature;BMP_pressure;BME280_temperature;BME280_humidity;BME280_pressure;Samples;Min_cycle;Max_cycle;Signal;HPM_P1;HPM_P2
2023/07/20 08:07:45;;;;;;;;;;;;;;;;;;3500209;27;19970;-79
2023/07/20 08:09:26;;;;;;;;;;;;;;;;;;3500731;28;20287;-79
2023/07/20 08:11:07;;;;;;;;;;;;;;;;;;3503845;28;19923;-79
2023/07/20 08:12:48;;;;;;;;;;;;;;;;;;3500661;28;19955;-78
2023/07/20 08:14:28;;;;;;;;;;;;;;;;;;3507562;28;19909;-79
2023/07/20 08:16:09;;;;;;;;;;;;;;;;;;3509945;28;19909;-78
2023/07/20 08:17:52;;;;;;;;;;;;;;;;;;3505884;28;19912;-80
2023/07/20 08:19:32;;;;;;;;;;;;;;;;;;3509785;28;19942;-79
2023/07/20 08:21:13;;;;;;;;;;;;;;;;;;3507932;28;19940;-79
2023/07/20 08:22:54;;;;;;;;;;;;;;;;;;3510103;28;19940;-80
2023/07/20 08:24:35;;;;;;;;;;;;;;;;;;3505305;28;19995;-79
2023/07/20 08:26:17;;;;;;;;;;;;;;;;;;3502537;28;20392;-82
2023/07/20 08:27:57;;;;;;;;;;;;;;;;;;3510383;28;19909;-79
2023/07/20 08:29:38;;;;;;;;;;;;;;;;;;3508717;28;20014;-79
2023/07/20 08:31:20;;;;;;;;;;;;;;;;;;3509810;28;19920;-81
2023/07/20 08:33:01;;;;;;;;;;;;;;;;;;3510668;28;19915;-80
2023/07/20 08:34:42;;;;;;;;;;;;;;;;;;3510873;28;19916;-79
2023/07/20 08:36:22;;;;;;;;;;;;;;;;;;3509409;28;19912;-79
2023/07/20 08:38:04;;;;;;;;;;;;;;;;;;3506085;28;20214;-79
2023/07/20 08:39:45;;;;;;;;;;;;;;;;;;3502609;28;20310;-80
2023/07/20 08:41:26;;;;;;;;;;;;;;;;;;3507098;28;19913;-78
2023/07/20 08:43:07;;;;;;;;;;;;;;;;;;3503152;28;19916;-79
2023/07/20 08:44:48;;;;;;;;;;;;;;;;;;3508068;28;20007;-80
2023/07/20 08:46:29;;;;;;;;;;;;;;;;;;3509783;28;19913;-79
2023/07/20 08:48:10;;;;;;;;;;;;;;;;;;3510733;28;19908;-81
2023/07/20 08:49:51;;;;;;;;;;;;;;;;;;3506313;28;20382;-80
2023/07/20 08:51:32;;;;;;;;;;;;;;;;;;3509090;28;20007;-79
2023/07/20 08:53:14;;;;;;;;;;;;;;;;;;3510439;28;20001;-79
2023/07/20 08:54:54;;;;;;;;;;;;;;;;;;3502072;28;19999;-80
2023/07/20 08:56:35;;;;;;;;;;;;;;;;;;3503923;28;19919;-80
2023/07/20 08:58:16;;;;;;;;;;;;;;;;;;3510127;28;19920;-79
2023/07/20 08:59:57;;;;;;;;;;;;;;;;;;3506721;28;20382;-79
2023/07/20 09:01:38;;;;;;;;;;;;;;;;;;3501790;28;19927;-80
2023/07/20 09:03:19;;;;;;;;;;;;;;;;;;3507882;28;19908;-80
2023/07/20 09:05:00;;;;;;;;;;;;;;;;;;3509839;28;20050;-80
2023/07/20 09:06:41;;;;;;;;;;;;;;;;;;3515653;28;19916;-79
2023/07/20 09:08:21;;;;;;;;;;;;;;;;;;3514682;28;19919;-79
2023/07/20 09:10:06;;;;;;;;;;;;;;;;;;3509604;28;20370;-79
2023/07/20 09:11:46;;;;;;;;;;;;;;;;;;3510912;28;19909;-80
2023/07/20 09:13:27;;;;;;;;;;;;;;;;;;3523325;28;20430;-80
2023/07/20 09:15:08;;;;;;;;;;;;;;;;;;3514066;28;20298;-80
2023/07/20 09:16:49;;;;;;;;;;;;;;;;;;3520727;28;19908;-79
2023/07/20 09:18:30;;;;;;;;;;;;;;;;;;3529513;28;19915;-80
2023/07/20 09:20:11;;;;;;;;;;;;;;;;;;3529416;27;19925;-80
2023/07/20 09:21:52;;;;;;;;;;;;;;;;;;3522860;28;19913;-81
2023/07/20 09:23:33;;;;;;;;;;;;;;;;;;3502795;28;19912;-79
2023/07/20 09:25:14;;;;;;;;;;;;;;;;;;3527552;28;20032;-81
2023/07/20 09:26:55;;;;;;;;;;;;;;;;;;3517527;28;19916;-79
2023/07/20 09:28:36;;;;;;;;;;;;;;;;;;3514425;28;19916;-79
2023/07/20 09:30:17;;;;;;;;;;;;;;;;;;3514946;28;20428;-81
2023/07/20 09:31:58;;;;;;;;;;;;;;;;;;3515115;28;19908;-79
2023/07/20 09:33:39;;;;;;;;;;;;;;;;;;3513701;28;19912;-80
2023/07/20 09:35:20;;;;;;;;;;;;;;;;;;3513791;28;20406;-79
2023/07/20 09:37:01;;;;;;;;;;;;;;;;;;3519474;28;20320;-78
2023/07/20 09:38:42;;;;;;;;;;;;;;;;;;3502304;28;19946;-82
2023/07/20 09:40:23;;;;;;;;;;;;;;;;;;3499744;28;19910;-80
2023/07/20 09:42:05;;;;;;;;;;;;;;;;;;3528306;28;19915;-81
2023/07/20 09:43:45;;;;;;;;;;;;;;;;;;3506294;28;19912;-80
2023/07/20 09:45:26;;;;;;;;;;;;;;;;;;3503519;28;19908;-80
2023/07/20 09:47:07;;;;;;;;;;;;;;;;;;3514436;28;19946;-80
2023/07/20 09:48:48;;;;;;;;;;;;;;;;;;3513438;28;19908;-80
2023/07/20 09:50:29;;;;;;;;;;;;;;;;;;3505004;28;19909;-80
2023/07/20 09:52:10;;;;;;;;;;;;;;;;;;3500936;28;19931;-81
2023/07/20 09:53:51;;;;;;;;;;;;;;;;;;3501521;28;20302;-80
2023/07/20 09:55:32;;;;;;;;;;;;;;;;;;3503146;28;20010;-80
2023/07/20 09:57:14;;;;;;;;;;;;;;;;;;3514017;28;20366;-80
2023/07/20 09:58:55;;;;;;;;;;;;;;;;;;3514513;28;19908;-80
2023/07/20 10:00:36;;;;;;;;;;;;;;;;;;3510914;28;19909;-80
2023/07/20 10:02:17;;;;;;;;;;;;;;;;;;3511467;28;19930;-80
2023/07/20 10:03:58;;;;;;;;;;;;;;;;;;3511014;28;20400;-80
2023/07/20 10:05:38;;;;;;;;;;;;;;;;;;3514571;28;19999;-81
2023/07/20 10:07:21;;;;;;;;;;;;;;;;;;3515180;28;19916;-80
2023/07/20 10:09:02;;;;;;;;;;;;;;;;;;3514503;28;19916;-80
2023/07/20 10:10:43;;;;;;;;;;;;;;;;;;3514600;28;20389;-80
2023/07/20 10:12:24;;;;;;;;;;;;;;;;;;3515377;28;19908;-80
2023/07/20 10:14:06;;;;;;;;;;;;;;;;;;3524762;28;20339;-81
2023/07/20 10:15:47;;;;;;;;;;;;;;;;;;3519871;28;19976;-81
2023/07/20 10:17:28;;;;;;;;;;;;;;;;;;3514256;28;19912;-80
2023/07/20 10:19:09;;;;;;;;;;;;;;;;;;3503227;28;20392;-79
2023/07/20 10:20:50;;;;;;;;;;;;;;;;;;3500779;28;19908;-80
2023/07/20 10:22:31;;;;;;;;;;;;;;;;;;3527346;28;19915;-80
2023/07/20 10:24:12;;;;;;;;;;;;;;;;;;3517025;28;19934;-80
2023/07/20 10:25:53;;;;;;;;;;;;;;;;;;3514029;28;20305;-80
2023/07/20 10:27:34;;;;;;;;;;;;;;;;;;3514009;28;20123;-80
2023/07/20 10:29:15;;;;;;;;;;;;;;;;;;3513270;28;19959;-79
2023/07/20 10:30:55;;;;;;;;;;;;;;;;;;3511869;28;20269;-80
2023/07/20 10:32:36;;;;;;;;;;;;;;;;;;3507826;28;19932;-79
2023/07/20 10:34:17;;;;;;;;;;;;;;;;;;3502930;28;19955;-79
2023/07/20 10:35:58;;;;;;;;;;;;;;;;;;3513962;28;19908;-79
2023/07/20 10:37:39;;;;;;;;;;;;;;;;;;3513257;28;20352;-80
2023/07/20 10:39:20;;;;;;;;;;;;;;;;;;3513362;28;19935;-80
2023/07/20 10:41:01;;;;;;;;;;;;;;;;;;3514110;28;19962;-80
2023/07/20 10:42:42;;;;;;;;;;;;;;;;;;3513861;28;19920;-79
2023/07/20 10:44:23;;;;;;;;;;;;;;;;;;3513131;28;19919;-82
2023/07/20 10:46:04;;;;;;;;;;;;;;;;;;3511637;28;20561;-79
2023/07/20 10:47:45;;;;;;;;;;;;;;;;;;3513862;28;19912;-80
2023/07/20 10:49:26;;;;;;;;;;;;;;;;;;3512280;28;19909;-80
2023/07/20 10:51:07;;;;;;;;;;;;;;;;;;3513215;28;19908;-80
2023/07/20 10:52:48;;;;;;;;;;;;;;;;;;3514030;28;20434;-81
2023/07/20 10:54:29;;;;;;;;;;;;;;;;;;3513637;28;19908;-79
2023/07/20 10:56:10;;;;;;;;;;;;;;;;;;3512960;28;19984;-79
2023/07/20 10:57:51;;;;;;;;;;;;;;;;;;3512365;28;20003;-80
2023/07/20 10:59:32;;;;;;;;;;;;;;;;;;3513103;28;20014;-80
2023/07/20 11:01:13;;;;;;;;;;;;;;;;;;3519366;28;19962;-80
2023/07/20 11:02:53;;;;;;;;;;;;;;;;;;3527543;28;19935;-80
2023/07/20 11:04:34;;;;;;;;;;;;;;;;;;3527759;28;19951;-80
2023/07/20 11:06:15;;;;;;;;;;;;;;;;;;3526129;28;19915;-79
2023/07/20 11:07:56;;;;;;;;;;;;;;;;;;3513666;28;19923;-80
2023/07/20 11:09:37;;;;;;;;;;;;;;;;;;3509856;28;19908;-80
2023/07/20 11:11:18;;;;;;;;;;;;;;;;;;3515930;28;19916;-81
2023/07/20 11:12:59;;;;;;;;;;;;;;;;;;3527629;28;19908;-80
2023/07/20 11:14:40;;;;;;;;;;;;;;;;;;3511673;28;19916;-79
2023/07/20 11:16:20;;;;;;;;;;;;;;;;;;3503897;28;19991;-80
2023/07/20 11:18:01;;;;;;;;;;;;;;;;;;3510622;28;19985;-80
2023/07/20 11:19:42;;;;;;;;;;;;;;;;;;3510349;28;19912;-79
2023/07/20 11:21:23;;;;;;;;;;;;;;;;;;3510618;28;19904;-80
2023/07/20 11:23:04;;;;;;;;;;;;;;;;;;3511625;28;20289;-80
2023/07/20 11:24:45;;;;;;;;;;;;;;;;;;3511624;28;19908;-80
2023/07/20 11:26:26;;;;;;;;;;;;;;;;;;3511936;28;20379;-80
2023/07/20 11:28:07;;;;;;;;;;;;;;;;;;3509072;28;19943;-79
2023/07/20 11:29:48;;;;;;;;;;;;;;;;;;3500978;28;20332;-82
2023/07/20 11:31:29;;;;;;;;;;;;;;;;;;3531770;22;20654;-86
2023/07/20 11:33:10;;;;;;;;;;;;;;;;;;3526903;28;19935;-87
2023/07/20 11:34:51;;;;;;;;;;;;;;;;;;3511432;28;19912;-86
2023/07/20 11:36:31;;;;;;;;;;;;;;;;;;3536952;27;20459;-86
2023/07/20 11:38:12;;;;;;;;;;;;;;;;;;3528875;27;20006;-86
2023/07/20 11:39:53;;;;;;;;;;;;;;;;;;3511229;28;19912;-86
2023/07/20 11:41:34;;;;;;;;;;;;;;;;;;3527753;27;19908;-86
2023/07/20 11:43:15;;;;;;;;;;;;;;;;;;3500431;28;20019;-87
2023/07/20 11:45:00;;;;;;;;;;;;;;;;;;3499099;28;19909;-87
2023/07/20 11:46:42;;;;;;;;;;;;;;;;;;3511344;28;19975;-87
2023/07/20 11:48:23;;;;;;;;;;;;;;;;;;3513948;28;19914;-87
2023/07/20 11:50:03;;;;;;;;;;;;;;;;;;3498095;28;19983;-86
2023/07/20 11:51:44;;;;;;;;;;;;;;;;;;3510357;28;19912;-86
2023/07/20 11:53:25;;;;;;;;;;;;;;;;;;3513474;28;19918;-87
2023/07/20 11:55:06;;;;;;;;;;;;;;;;;;3498065;28;19998;-86
2023/07/20 11:56:47;;;;;;;;;;;;;;;;;;3510336;28;20003;-87
2023/07/20 11:58:28;;;;;;;;;;;;;;;;;;3498389;28;20019;-86
2023/07/20 12:00:11;;;;;;;;;;;;;;;;;;3498509;28;19908;-87
2023/07/20 12:01:52;;;;;;;;;;;;;;;;;;3509768;28;19908;-88
2023/07/20 12:03:32;;;;;;;;;;;;;;;;;;3498055;28;19915;-86
2023/07/20 12:05:13;;;;;;;;;;;;;;;;;;3508896;28;19999;-86
2023/07/20 12:06:55;;;;;;;;;;;;;;;;;;3512879;28;19912;-86
2023/07/20 12:08:36;;;;;;;;;;;;;;;;;;3512331;28;19930;-83
2023/07/20 12:10:16;;;;;;;;;;;;;;;;;;3512658;28;19908;-86
2023/07/20 12:11:57;;;;;;;;;;;;;;;;;;3521014;28;19965;-86
2023/07/20 12:13:38;;;;;;;;;;;;;;;;;;3508069;28;19913;-86
2023/07/20 12:15:19;;;;;;;;;;;;;;;;;;3523167;28;20377;-86
2023/07/20 12:17:00;;;;;;;;;;;;;;;;;;3500652;28;19967;-87
2023/07/20 12:18:41;;;;;;;;;;;;;;;;;;3510446;28;19958;-86
2023/07/20 12:20:22;;;;;;;;;;;;;;;;;;3497917;28;20382;-86
2023/07/20 12:22:03;;;;;;;;;;;;;;;;;;3495203;28;19948;-87
2023/07/20 12:23:44;;;;;;;;;;;;;;;;;;3494791;28;19952;-85
2023/07/20 12:25:25;;;;;;;;;;;;;;;;;;3495335;28;19931;-86
2023/07/20 12:27:05;;;;;;;;;;;;;;;;;;3509717;28;19915;-86
2023/07/20 12:28:46;;;;;;;;;;;;;;;;;;3497983;28;19935;-86
2023/07/20 12:30:27;;;;;;;;;;;;;;;;;;3524762;28;19915;-86
2023/07/20 12:32:08;;;;;;;;;;;;;;;;;;3514710;28;19922;-86
2023/07/20 12:33:49;;;;;;;;;;;;;;;;;;3497835;28;20370;-86
2023/07/20 12:35:30;;;;;;;;;;;;;;;;;;3498358;28;19912;-86
2023/07/20 12:37:11;;;;;;;;;;;;;;;;;;3509919;28;19915;-86
2023/07/20 12:38:53;;;;;;;;;;;;;;;;;;3512521;28;19908;-86
2023/07/20 12:40:33;;;;;;;;;;;;;;;;;;3512310;28;19912;-87
2023/07/20 12:42:16;;;;;;;;;;;;;;;;;;3497646;28;19952;-86
2023/07/20 12:43:58;;;;;;;;;;;;;;;;;;3497737;28;20003;-87
2023/07/20 12:45:39;;;;;;;;;;;;;;;;;;3497639;28;20287;-86
2023/07/20 12:47:19;;;;;;;;;;;;;;;;;;3509547;28;19955;-86
2023/07/20 12:49:00;;;;;;;;;;;;;;;;;;3512797;28;19908;-86
2023/07/20 12:50:41;;;;;;;;;;;;;;;;;;3512861;28;19912;-87
2023/07/20 12:52:22;;;;;;;;;;;;;;;;;;3513434;28;19936;-87
2023/07/20 12:54:03;;;;;;;;;;;;;;;;;;3499525;28;19912;-86
2023/07/20 12:55:44;;;;;;;;;;;;;;;;;;3512604;28;19916;-86
2023/07/20 12:57:25;;;;;;;;;;;;;;;;;;3515336;28;20320;-86
2023/07/20 12:59:06;;;;;;;;;;;;;;;;;;3500043;28;19908;-85
2023/07/20 13:00:47;;;;;;;;;;;;;;;;;;3499638;28;19927;-86
2023/07/20 13:02:28;;;;;;;;;;;;;;;;;;3511709;28;19952;-86
2023/07/20 13:04:09;;;;;;;;;;;;;;;;;;3515391;28;20278;-86
2023/07/20 13:05:50;;;;;;;;;;;;;;;;;;3516218;28;19916;-87
2023/07/20 13:07:31;;;;;;;;;;;;;;;;;;3514909;28;19995;-86
2023/07/20 13:09:12;;;;;;;;;;;;;;;;;;3524369;28;19961;-86
2023/07/20 13:10:54;;;;;;;;;;;;;;;;;;3518092;28;19920;-86
2023/07/20 13:12:35;;;;;;;;;;;;;;;;;;3501140;28;19908;-86
2023/07/20 13:14:16;;;;;;;;;;;;;;;;;;3515519;28;19908;-86
2023/07/20 13:15:57;;;;;;;;;;;;;;;;;;3517583;28;19909;-86
2023/07/20 13:17:38;;;;;;;;;;;;;;;;;;3516182;28;20007;-86
2023/07/20 13:19:20;;;;;;;;;;;;;;;;;;3501667;28;19940;-87
2023/07/20 13:21:01;;;;;;;;;;;;;;;;;;3501967;28;20318;-87
2023/07/20 13:22:42;;;;;;;;;;;;;;;;;;3514519;28;19908;-86
2023/07/20 13:24:22;;;;;;;;;;;;;;;;;;3501752;28;19951;-86
2023/07/20 13:26:03;;;;;;;;;;;;;;;;;;3501359;28;19952;-87
2023/07/20 13:27:44;;;;;;;;;;;;;;;;;;3513536;28;19940;-87
2023/07/20 13:29:25;;;;;;;;;;;;;;;;;;3516580;28;19995;-86
2023/07/20 13:31:08;;;;;;;;;;;;;;;;;;3500924;28;19912;-86
2023/07/20 13:32:49;;;;;;;;;;;;;;;;;;3515605;28;19936;-88
2023/07/20 13:34:30;;;;;;;;;;;;;;;;;;3517419;28;19908;-87
2023/07/20 13:36:11;;;;;;;;;;;;;;;;;;3502260;28;19976;-87
2023/07/20 13:37:52;;;;;;;;;;;;;;;;;;3502280;28;20042;-86
2023/07/20 13:39:33;;;;;;;;;;;;;;;;;;3514916;28;19932;-87
2023/07/20 13:41:14;;;;;;;;;;;;;;;;;;3502021;28;19919;-87
2023/07/20 13:42:55;;;;;;;;;;;;;;;;;;3502072;28;19909;-87
2023/07/20 13:44:37;;;;;;;;;;;;;;;;;;3527486;28;19960;-88
2023/07/20 13:46:18;;;;;;;;;;;;;;;;;;3506589;28;20472;-87
2023/07/20 13:47:59;;;;;;;;;;;;;;;;;;3516376;28;19908;-86
2023/07/20 13:49:40;;;;;;;;;;;;;;;;;;3523397;28;19908;-87
2023/07/20 13:51:20;;;;;;;;;;;;;;;;;;3517571;28;19908;-86
2023/07/20 13:53:03;;;;;;;;;;;;;;;;;;3530145;28;19908;-88
2023/07/20 13:54:43;;;;;;;;;;;;;;;;;;3517393;28;19919;-86
2023/07/20 13:56:24;;;;;;;;;;;;;;;;;;3529611;28;19951;-87
2023/07/20 13:58:05;;;;;;;;;;;;;;;;;;3512006;28;19908;-87
2023/07/20 13:59:46;;;;;;;;;;;;;;;;;;3501035;28;19913;-87
2023/07/20 14:01:28;;;;;;;;;;;;;;;;;;3500059;28;19978;-86
2023/07/20 14:03:09;;;;;;;;;;;;;;;;;;3499949;28;19915;-87
2023/07/20 14:04:50;;;;;;;;;;;;;;;;;;3493752;28;19909;-87
2023/07/20 14:06:31;;;;;;;;;;;;;;;;;;3515807;28;19919;-87
2023/07/20 14:08:12;;;;;;;;;;;;;;;;;;3518744;28;19908;-87
2023/07/20 14:09:53;;;;;;;;;;;;;;;;;;3516016;28;19905;-86
2023/07/20 14:11:33;;;;;;;;;;;;;;;;;;3517427;28;19912;-87
2023/07/20 14:13:14;;;;;;;;;;;;;;;;;;3516566;28;19972;-87
2023/07/20 14:14:56;;;;;;;;;;;;;;;;;;3517559;28;19916;-88
2023/07/20 14:16:37;;;;;;;;;;;;;;;;;;3515466;28;19919;-87
2023/07/20 14:18:18;;;;;;;;;;;;;;;;;;3517248;28;19908;-88
2023/07/20 14:19:59;;;;;;;;;;;;;;;;;;3517631;28;20092;-87
2023/07/20 14:21:40;;;;;;;;;;;;;;;;;;3501964;28;19908;-87
2023/07/20 14:23:20;;;;;;;;;;;;;;;;;;3502311;28;20374;-86
2023/07/20 14:25:01;;;;;;;;;;;;;;;;;;3513331;28;20348;-87
2023/07/20 14:26:42;;;;;;;;;;;;;;;;;;3503121;28;20017;-87
2023/07/20 14:28:23;;;;;;;;;;;;;;;;;;3513453;28;19934;-86
2023/07/20 14:30:04;;;;;;;;;;;;;;;;;;3516687;28;19998;-87
2023/07/20 14:31:47;;;;;;;;;;;;;;;;;;3501406;28;19971;-86
2023/07/20 14:33:28;;;;;;;;;;;;;;;;;;3513729;28;20370;-86
2023/07/20 14:35:09;;;;;;;;;;;;;;;;;;3516611;28;19908;-87
2023/07/20 14:36:50;;;;;;;;;;;;;;;;;;3516060;28;19919;-86
2023/07/20 14:38:31;;;;;;;;;;;;;;;;;;3516331;28;19990;-87
2023/07/20 14:40:12;;;;;;;;;;;;;;;;;;3515706;28;19931;-87
2023/07/20 14:41:53;;;;;;;;;;;;;;;;;;3514165;28;19919;-86
2023/07/20 14:43:34;;;;;;;;;;;;;;;;;;3498509;28;19919;-86
2023/07/20 14:45:16;;;;;;;;;;;;;;;;;;3499566;28;20286;-86
2023/07/20 14:46:57;;;;;;;;;;;;;;;;;;3511962;28;19912;-85
2023/07/20 14:48:38;;;;;;;;;;;;;;;;;;3515268;28;19923;-88
2023/07/20 14:50:18;;;;;;;;;;;;;;;;;;3515895;28;19912;-87
2023/07/20 14:51:59;;;;;;;;;;;;;;;;;;3516639;28;20283;-88
2023/07/20 14:53:40;;;;;;;;;;;;;;;;;;3516480;28;19908;-86
2023/07/20 14:55:21;;;;;;;;;;;;;;;;;;3500723;28;19943;-86
2023/07/20 14:57:03;;;;;;;;;;;;;;;;;;3508180;28;20336;-87
2023/07/20 14:58:44;;;;;;;;;;;;;;;;;;3516180;28;19908;-87
2023/07/20 15:00:25;;;;;;;;;;;;;;;;;;3514206;28;19958;-85
2023/07/20 15:02:06;;;;;;;;;;;;;;;;;;3500087;28;20451;-87
2023/07/20 15:03:50;;;;;;;;;;;;;;;;;;3512340;28;20403;-87
2023/07/20 15:05:30;;;;;;;;;;;;;;;;;;3515775;28;19909;-87
2023/07/20 15:07:11;;;;;;;;;;;;;;;;;;3515416;28;20013;-87
2023/07/20 15:08:52;;;;;;;;;;;;;;;;;;3514334;28;19908;-86
2023/07/20 15:10:33;;;;;;;;;;;;;;;;;;3515566;28;19912;-86
2023/07/20 15:12:14;;;;;;;;;;;;;;;;;;3515617;28;19912;-86
2023/07/20 15:13:56;;;;;;;;;;;;;;;;;;3515474;28;19931;-87
2023/07/20 15:15:37;;;;;;;;;;;;;;;;;;3500406;28;20362;-87
2023/07/20 15:17:18;;;;;;;;;;;;;;;;;;3511401;28;19946;-87
2023/07/20 15:18:59;;;;;;;;;;;;;;;;;;3515829;28;19957;-87
2023/07/20 15:20:40;;;;;;;;;;;;;;;;;;3514884;28;19958;-86
2023/07/20 15:22:21;;;;;;;;;;;;;;;;;;3514845;28;19908;-86
2023/07/20 15:24:02;;;;;;;;;;;;;;;;;;3515761;28;20350;-87
2023/07/20 15:25:43;;;;;;;;;;;;;;;;;;3515073;28;20377;-86
2023/07/20 15:27:24;;;;;;;;;;;;;;;;;;3514706;28;19908;-86
2023/07/20 15:29:05;;;;;;;;;;;;;;;;;;3499627;28;19912;-86
2023/07/20 15:30:46;;;;;;;;;;;;;;;;;;3499137;28;19913;-86
2023/07/20 15:32:27;;;;;;;;;;;;;;;;;;3496847;28;19913;-87
2023/07/20 15:34:08;;;;;;;;;;;;;;;;;;3500020;28;20308;-86
2023/07/20 15:35:49;;;;;;;;;;;;;;;;;;3511397;28;19939;-86
2023/07/20 15:37:30;;;;;;;;;;;;;;;;;;3514895;28;19911;-86
2023/07/20 15:39:11;;;;;;;;;;;;;;;;;;3499587;28;19959;-86
2023/07/20 15:40:52;;;;;;;;;;;;;;;;;;3511615;28;19916;-86
2023/07/20 15:42:33;;;;;;;;;;;;;;;;;;3514352;28;20353;-86
2023/07/20 15:44:14;;;;;;;;;;;;;;;;;;3514449;28;19908;-87
2023/07/20 15:45:55;;;;;;;;;;;;;;;;;;3514765;28;19915;-86
2023/07/20 15:47:36;;;;;;;;;;;;;;;;;;3514901;28;19908;-87
2023/07/20 15:49:17;;;;;;;;;;;;;;;;;;3499406;28;19908;-87
2023/07/20 15:50:58;;;;;;;;;;;;;;;;;;3511243;28;19991;-86
2023/07/20 15:52:41;;;;;;;;;;;;;;;;;;3515178;28;19916;-87
2023/07/20 15:54:22;;;;;;;;;;;;;;;;;;3515089;28;19915;-86
2023/07/20 15:56:03;;;;;;;;;;;;;;;;;;3499458;28;19908;-87
2023/07/20 15:57:44;;;;;;;;;;;;;;;;;;3515455;28;19920;-86
2023/07/20 15:59:25;;;;;;;;;;;;;;;;;;3502607;28;19931;-87
2023/07/20 16:01:06;;;;;;;;;;;;;;;;;;3524997;28;19975;-86
2023/07/20 16:02:47;;;;;;;;;;;;;;;;;;3502467;28;19916;-87
2023/07/20 16:04:28;;;;;;;;;;;;;;;;;;3512095;28;19908;-86
2023/07/20 16:06:09;;;;;;;;;;;;;;;;;;3499760;28;19909;-88
2023/07/20 16:07:50;;;;;;;;;;;;;;;;;;3499180;28;19931;-88
2023/07/20 16:09:31;;;;;;;;;;;;;;;;;;3510927;28;19915;-86
2023/07/20 16:11:12;;;;;;;;;;;;;;;;;;3498297;28;19905;-87
2023/07/20 16:12:53;;;;;;;;;;;;;;;;;;3509428;28;20318;-86
2023/07/20 16:14:34;;;;;;;;;;;;;;;;;;3497517;28;19960;-86
2023/07/20 16:16:15;;;;;;;;;;;;;;;;;;3509311;28;19977;-87
2023/07/20 16:17:56;;;;;;;;;;;;;;;;;;3512300;28;19934;-86
2023/07/20 16:19:37;;;;;;;;;;;;;;;;;;3497725;28;20247;-85
2023/07/20 16:21:17;;;;;;;;;;;;;;;;;;3510715;28;20347;-85
2023/07/20 16:22:58;;;;;;;;;;;;;;;;;;3513987;28;20006;-86
2023/07/20 16:24:39;;;;;;;;;;;;;;;;;;3498617;28;19908;-86
2023/07/20 16:26:20;;;;;;;;;;;;;;;;;;3513302;28;20468;-86
2023/07/20 16:28:01;;;;;;;;;;;;;;;;;;3500903;28;19926;-86
2023/07/20 16:29:42;;;;;;;;;;;;;;;;;;3503546;28;19990;-86
2023/07/20 16:31:23;;;;;;;;;;;;;;;;;;3527899;28;19962;-87
2023/07/20 16:33:04;;;;;;;;;;;;;;;;;;3521835;28;19912;-87
2023/07/20 16:34:45;;;;;;;;;;;;;;;;;;3504140;28;19909;-86
2023/07/20 16:36:26;;;;;;;;;;;;;;;;;;3515797;28;20373;-86
2023/07/20 16:38:07;;;;;;;;;;;;;;;;;;3504182;28;19915;-87
2023/07/20 16:39:48;;;;;;;;;;;;;;;;;;3516036;28;19908;-86
2023/07/20 16:41:29;;;;;;;;;;;;;;;;;;3519542;28;19912;-86
2023/07/20 16:43:10;;;;;;;;;;;;;;;;;;3519532;28;19908;-88
2023/07/20 16:44:51;;;;;;;;;;;;;;;;;;3504386;28;19983;-87
2023/07/20 16:46:33;;;;;;;;;;;;;;;;;;3503921;28;19984;-86
2023/07/20 16:48:14;;;;;;;;;;;;;;;;;;3516563;28;19935;-86
2023/07/20 16:49:55;;;;;;;;;;;;;;;;;;3519520;28;19916;-87
2023/07/20 16:51:36;;;;;;;;;;;;;;;;;;3519170;28;19908;-88
2023/07/20 16:53:17;;;;;;;;;;;;;;;;;;3519567;28;19908;-88
2023/07/20 16:54:58;;;;;;;;;;;;;;;;;;3503776;28;19913;-88
2023/07/20 16:56:41;;;;;;;;;;;;;;;;;;3504209;28;19915;-87
2023/07/20 16:58:22;;;;;;;;;;;;;;;;;;3502097;28;19936;-87
2023/07/20 17:00:07;;;;;;;;;;;;;;;;;;3516527;28;19908;-88
2023/07/20 17:01:47;;;;;;;;;;;;;;;;;;3520098;28;19912;-87
2023/07/20 17:03:28;;;;;;;;;;;;;;;;;;3519422;28;19915;-87
2023/07/20 17:05:09;;;;;;;;;;;;;;;;;;3518710;28;19930;-88
2023/07/20 17:06:50;;;;;;;;;;;;;;;;;;3504169;28;19954;-88
2023/07/20 17:08:31;;;;;;;;;;;;;;;;;;3505318;28;19909;-87
2023/07/20 17:10:12;;;;;;;;;;;;;;;;;;3505600;28;19991;-87
2023/07/20 17:11:53;;;;;;;;;;;;;;;;;;3491608;28;19920;-87
2023/07/20 17:13:34;;;;;;;;;;;;;;;;;;3518663;28;19919;-87
2023/07/20 17:15:15;;;;;;;;;;;;;;;;;;3523114;28;19977;-86
2023/07/20 17:16:56;;;;;;;;;;;;;;;;;;3520215;28;19912;-86
2023/07/20 17:18:37;;;;;;;;;;;;;;;;;;3520164;28;19927;-85
2023/07/20 17:20:18;;;;;;;;;;;;;;;;;;3523551;28;19908;-88
2023/07/20 17:21:58;;;;;;;;;;;;;;;;;;3521566;28;20401;-88
2023/07/20 17:23:39;;;;;;;;;;;;;;;;;;3505941;28;19944;-87
2023/07/20 17:25:20;;;;;;;;;;;;;;;;;;3513607;28;19908;-87
2023/07/20 17:27:01;;;;;;;;;;;;;;;;;;3503220;28;19908;-86
2023/07/20 17:28:42;;;;;;;;;;;;;;;;;;3513845;28;19908;-86
2023/07/20 17:30:23;;;;;;;;;;;;;;;;;;3518336;28;19915;-87
2023/07/20 17:32:04;;;;;;;;;;;;;;;;;;3518265;28;19981;-86
2023/07/20 17:33:45;;;;;;;;;;;;;;;;;;3517006;28;19914;-86
2023/07/20 17:35:27;;;;;;;;;;;;;;;;;;3516040;28;20007;-87
2023/07/20 17:37:08;;;;;;;;;;;;;;;;;;3516081;28;19912;-86
2023/07/20 17:38:49;;;;;;;;;;;;;;;;;;3516290;28;19953;-87
2023/07/20 17:40:30;;;;;;;;;;;;;;;;;;3503628;28;19909;-86
2023/07/20 17:42:11;;;;;;;;;;;;;;;;;;3511342;28;19908;-87
2023/07/20 17:43:52;;;;;;;;;;;;;;;;;;3499499;28;20004;-86
2023/07/20 17:45:33;;;;;;;;;;;;;;;;;;3511771;28;19908;-85
2023/07/20 17:47:14;;;;;;;;;;;;;;;;;;3514470;28;20527;-87
2023/07/20 17:48:55;;;;;;;;;;;;;;;;;;3499438;28;19908;-86
2023/07/20 17:50:36;;;;;;;;;;;;;;;;;;3519582;28;20300;-86
2023/07/20 17:52:17;;;;;;;;;;;;;;;;;;3514458;28;19915;-86
2023/07/20 17:53:58;;;;;;;;;;;;;;;;;;3515182;28;19928;-86
2023/07/20 17:55:39;;;;;;;;;;;;;;;;;;3514168;28;19919;-87
2023/07/20 17:57:19;;;;;;;;;;;;;;;;;;3513999;28;19965;-86
2023/07/20 17:59:00;;;;;;;;;;;;;;;;;;3514638;28;19991;-86
2023/07/20 18:00:41;;;;;;;;;;;;;;;;;;3498841;28;20290;-86
2023/07/20 18:02:25;;;;;;;;;;;;;;;;;;3504960;28;19916;-86
2023/07/20 18:04:06;;;;;;;;;;;;;;;;;;3511774;28;20263;-85
2023/07/20 18:05:47;;;;;;;;;;;;;;;;;;3514478;28;19915;-86
2023/07/20 18:07:27;;;;;;;;;;;;;;;;;;3499053;28;19915;-86
2023/07/20 18:09:09;;;;;;;;;;;;;;;;;;3510697;28;19908;-86
2023/07/20 18:10:50;;;;;;;;;;;;;;;;;;3498668;28;19916;-86
2023/07/20 18:12:31;;;;;;;;;;;;;;;;;;3511456;28;19909;-86
2023/07/20 18:14:12;;;;;;;;;;;;;;;;;;3510496;28;19912;-91
2023/07/20 18:15:53;;;;;;;;;;;;;;;;;;3500373;28;20370;-88
2023/07/20 18:17:34;;;;;;;;;;;;;;;;;;3510681;28;19965;-89
2023/07/20 18:19:15;;;;;;;;;;;;;;;;;;3513043;28;19908;-87
2023/07/20 18:20:56;;;;;;;;;;;;;;;;;;3511287;28;19967;-86
2023/07/20 18:22:37;;;;;;;;;;;;;;;;;;3511799;28;19916;-86
2023/07/20 18:24:18;;;;;;;;;;;;;;;;;;3499775;28;20398;-87
2023/07/20 18:25:59;;;;;;;;;;;;;;;;;;3493933;28;19912;-84
2023/07/20 18:27:40;;;;;;;;;;;;;;;;;;3511522;28;19914;-86
2023/07/20 18:29:21;;;;;;;;;;;;;;;;;;3494472;28;20023;-85
2023/07/20 18:31:02;;;;;;;;;;;;;;;;;;3492537;28;19924;-86
2023/07/20 18:32:43;;;;;;;;;;;;;;;;;;3493345;28;19912;-86
2023/07/20 18:34:26;;;;;;;;;;;;;;;;;;3507914;28;19919;-87
2023/07/20 18:36:07;;;;;;;;;;;;;;;;;;3512617;28;19916;-86
2023/07/20 18:37:48;;;;;;;;;;;;;;;;;;3497621;28;20385;-87
2023/07/20 18:39:29;;;;;;;;;;;;;;;;;;3502003;28;19916;-86
2023/07/20 18:41:11;;;;;;;;;;;;;;;;;;3507533;28;19912;-87
2023/07/20 18:42:52;;;;;;;;;;;;;;;;;;3512420;28;19931;-86
2023/07/20 18:44:33;;;;;;;;;;;;;;;;;;3499220;28;19916;-87
2023/07/20 18:46:14;;;;;;;;;;;;;;;;;;3499070;28;20310;-86
2023/07/20 18:47:55;;;;;;;;;;;;;;;;;;3491299;28;19991;-86
2023/07/20 18:49:36;;;;;;;;;;;;;;;;;;3498122;28;19916;-86
2023/07/20 18:51:17;;;;;;;;;;;;;;;;;;3505620;28;19912;-87
2023/07/20 18:53:00;;;;;;;;;;;;;;;;;;3511959;28;19912;-87
2023/07/20 18:54:42;;;;;;;;;;;;;;;;;;3510882;28;19915;-88
2023/07/20 18:56:23;;;;;;;;;;;;;;;;;;3511359;28;19920;-87
2023/07/20 18:58:04;;;;;;;;;;;;;;;;;;3511789;28;19912;-87
2023/07/20 18:59:45;;;;;;;;;;;;;;;;;;3510298;28;19923;-87
2023/07/20 19:01:27;;;;;;;;;;;;;;;;;;3509445;28;19908;-87
2023/07/20 19:03:08;;;;;;;;;;;;;;;;;;3502623;28;20003;-87
2023/07/20 19:04:51;;;;;;;;;;;;;;;;;;3507879;28;20313;-88
2023/07/20 19:06:31;;;;;;;;;;;;;;;;;;3489004;28;19952;-87
2023/07/20 19:08:12;;;;;;;;;;;;;;;;;;3507694;28;20095;-87
2023/07/20 19:09:53;;;;;;;;;;;;;;;;;;3494572;28;19916;-87
2023/07/20 19:11:34;;;;;;;;;;;;;;;;;;3508925;28;19960;-87
2023/07/20 19:13:15;;;;;;;;;;;;;;;;;;3511898;28;19908;-86
2023/07/20 19:14:56;;;;;;;;;;;;;;;;;;3498049;28;19912;-86
2023/07/20 19:16:37;;;;;;;;;;;;;;;;;;3503045;28;19913;-86
2023/07/20 19:18:18;;;;;;;;;;;;;;;;;;3495773;28;20390;-87
2023/07/20 19:19:59;;;;;;;;;;;;;;;;;;3518746;28;19913;-87
2023/07/20 19:21:40;;;;;;;;;;;;;;;;;;3503255;28;19908;-87
2023/07/20 19:23:21;;;;;;;;;;;;;;;;;;3511472;28;19919;-87
2023/07/20 19:25:02;;;;;;;;;;;;;;;;;;3508857;28;19908;-86
2023/07/20 19:26:42;;;;;;;;;;;;;;;;;;3500637;28;19925;-87
2023/07/20 19:28:23;;;;;;;;;;;;;;;;;;3508331;28;19912;-87
2023/07/20 19:30:04;;;;;;;;;;;;;;;;;;3509854;28;19912;-85
2023/07/20 19:31:45;;;;;;;;;;;;;;;;;;3516357;22;19924;-79
2023/07/20 19:33:26;;;;;;;;;;;;;;;;;;3498481;28;19908;-80
2023/07/20 19:35:07;;;;;;;;;;;;;;;;;;3487497;28;20280;-78
2023/07/20 19:36:49;;;;;;;;;;;;;;;;;;3491545;28;19935;-79